sensor_id;sensor_type;location;lat;lon;timestamp;P1;durP1;ratioP1;P2;durP2;ratioP2
4569;SDS011;2297;51.442;6.996;2023-07-30T00:01:58;7.55;;;3.38;;
4569;SDS011;2297;51.442;6.996;2023-07-30T00:04:25;4.32;;;3.17;;
4569;SDS011;2297;51.442;6.996;2023-07-30T00:06:52;23.42;;;3.67;;
4569;SDS011;2297;51.442;6.996;2023-07-30T00:09:19;6.72;;;3.03;;
4569;SDS011;2297;51.442;6.996;2023-07-30T00:11:45;7.13;;;3.15;;
4569;SDS011;2297;51.442;6.996;2023-07-30T00:14:12;8.10;;;3.10;;
4569;SDS011;2297;51.442;6.996;2023-07-30T00:16:40;5.97;;;3.13;;
4569;SDS011;2297;51.442;6.996;2023-07-30T00:19:07;5.85;;;3.42;;
4569;SDS011;2297;51.442;6.996;2023-07-30T00:21:33;5.50;;;2.70;;
4569;SDS011;2297;51.442;6.996;2023-07-30T00:24:00;6.10;;;3.20;;
4569;SDS011;2297;51.442;6.996;2023-07-30T00:26:27;6.82;;;2.90;;
4569;SDS011;2297;51.442;6.996;2023-07-30T00:28:55;9.10;;;3.10;;
4569;SDS011;2297;51.442;6.996;2023-07-30T00:31:21;9.73;;;3.13;;
4569;SDS011;2297;51.442;6.996;2023-07-30T00:33:49;10.93;;;3.47;;
4569;SDS011;2297;51.442;6.996;2023-07-30T00:36:16;7.95;;;2.88;;
4569;SDS011;2297;51.442;6.996;2023-07-30T00:38:43;7.63;;;2.80;;
4569;SDS011;2297;51.442;6.996;2023-07-30T00:41:10;4.70;;;2.83;;
4569;SDS011;2297;51.442;6.996;2023-07-30T00:43:37;5.43;;;3.05;;
4569;SDS011;2297;51.442;6.996;2023-07-30T00:46:03;6.90;;;3.70;;
4569;SDS011;2297;51.442;6.996;2023-07-30T00:48:30;6.78;;;2.85;;
4569;SDS011;2297;51.442;6.996;2023-07-30T00:50:59;5.50;;;2.65;;
4569;SDS011;2297;51.442;6.996;2023-07-30T00:53:26;7.95;;;3.13;;
4569;SDS011;2297;51.442;6.996;2023-07-30T00:55:54;7.50;;;3.17;;
4569;SDS011;2297;51.442;6.996;2023-07-30T00:58:21;9.10;;;3.38;;
4569;SDS011;2297;51.442;6.996;2023-07-30T01:00:49;6.60;;;3.20;;
4569;SDS011;2297;51.442;6.996;2023-07-30T01:03:18;6.35;;;2.92;;
4569;SDS011;2297;51.442;6.996;2023-07-30T01:05:44;5.72;;;3.17;;
4569;SDS011;2297;51.442;6.996;2023-07-30T01:08:13;6.80;;;3.45;;
4569;SDS011;2297;51.442;6.996;2023-07-30T01:10:40;6.15;;;3.08;;
4569;SDS011;2297;51.442;6.996;2023-07-30T01:13:07;7.80;;;3.08;;
4569;SDS011;2297;51.442;6.996;2023-07-30T01:15:35;7.80;;;3.38;;
4569;SDS011;2297;51.442;6.996;2023-07-30T01:18:03;6.47;;;3.20;;
4569;SDS011;2297;51.442;6.996;2023-07-30T01:20:30;4.80;;;2.95;;
4569;SDS011;2297;51.442;6.996;2023-07-30T01:22:58;7.10;;;3.30;;
4569;SDS011;2297;51.442;6.996;2023-07-30T01:25:25;9.95;;;3.28;;
4569;SDS011;2297;51.442;6.996;2023-07-30T01:27:55;6.18;;;2.92;;
4569;SDS011;2297;51.442;6.996;2023-07-30T01:30:27;7.40;;;2.72;;
4569;SDS011;2297;51.442;6.996;2023-07-30T01:32:56;6.32;;;3.10;;
4569;SDS011;2297;51.442;6.996;2023-07-30T01:35:25;5.20;;;3.10;;
4569;SDS011;2297;51.442;6.996;2023-07-30T01:37:53;4.97;;;3.00;;
4569;SDS011;2297;51.442;6.996;2023-07-30T01:40:22;7.05;;;3.05;;
4569;SDS011;2297;51.442;6.996;2023-07-30T01:42:49;12.95;;;3.45;;
4569;SDS011;2297;51.442;6.996;2023-07-30T01:45:16;6.75;;;3.10;;
4569;SDS011;2297;51.442;6.996;2023-07-30T01:47:43;6.30;;;3.33;;
4569;SDS011;2297;51.442;6.996;2023-07-30T01:50:09;7.18;;;2.72;;
4569;SDS011;2297;51.442;6.996;2023-07-30T01:52:36;10.32;;;3.22;;
4569;SDS011;2297;51.442;6.996;2023-07-30T01:55:03;6.28;;;2.83;;
4569;SDS011;2297;51.442;6.996;2023-07-30T01:57:32;7.38;;;3.13;;
4569;SDS011;2297;51.442;6.996;2023-07-30T01:59:58;9.77;;;3.00;;
4569;SDS011;2297;51.442;6.996;2023-07-30T02:02:25;8.00;;;2.67;;
4569;SDS011;2297;51.442;6.996;2023-07-30T02:04:52;8.52;;;3.22;;
4569;SDS011;2297;51.442;6.996;2023-07-30T02:07:19;10.02;;;3.40;;
4569;SDS011;2297;51.442;6.996;2023-07-30T02:09:45;6.95;;;3.15;;
4569;SDS011;2297;51.442;6.996;2023-07-30T02:12:12;5.30;;;3.03;;
4569;SDS011;2297;51.442;6.996;2023-07-30T02:14:40;7.28;;;2.90;;
4569;SDS011;2297;51.442;6.996;2023-07-30T02:17:06;7.80;;;3.05;;
4569;SDS011;2297;51.442;6.996;2023-07-30T02:19:33;5.60;;;3.20;;
4569;SDS011;2297;51.442;6.996;2023-07-30T02:22:00;6.50;;;2.75;;
4569;SDS011;2297;51.442;6.996;2023-07-30T02:24:26;7.28;;;3.47;;
4569;SDS011;2297;51.442;6.996;2023-07-30T02:26:53;8.32;;;3.28;;
4569;SDS011;2297;51.442;6.996;2023-07-30T02:29:20;14.10;;;3.08;;
4569;SDS011;2297;51.442;6.996;2023-07-30T02:31:48;6.72;;;3.00;;
4569;SDS011;2297;51.442;6.996;2023-07-30T02:34:14;9.55;;;3.30;;
4569;SDS011;2297;51.442;6.996;2023-07-30T02:36:41;5.93;;;3.08;;
4569;SDS011;2297;51.442;6.996;2023-07-30T02:39:07;10.80;;;3.53;;
4569;SDS011;2297;51.442;6.996;2023-07-30T02:41:34;8.00;;;3.60;;
4569;SDS011;2297;51.442;6.996;2023-07-30T02:44:01;6.75;;;2.65;;
4569;SDS011;2297;51.442;6.996;2023-07-30T02:46:27;10.30;;;4.28;;
4569;SDS011;2297;51.442;6.996;2023-07-30T02:48:55;11.15;;;3.30;;
4569;SDS011;2297;51.442;6.996;2023-07-30T02:51:22;10.13;;;3.05;;
4569;SDS011;2297;51.442;6.996;2023-07-30T02:53:51;7.30;;;3.58;;
4569;SDS011;2297;51.442;6.996;2023-07-30T02:56:19;6.95;;;3.20;;
4569;SDS011;2297;51.442;6.996;2023-07-30T02:58:45;7.97;;;3.10;;
4569;SDS011;2297;51.442;6.996;2023-07-30T03:01:12;5.80;;;3.03;;
4569;SDS011;2297;51.442;6.996;2023-07-30T03:03:38;7.45;;;3.30;;
4569;SDS011;2297;51.442;6.996;2023-07-30T03:06:06;8.02;;;3.28;;
4569;SDS011;2297;51.442;6.996;2023-07-30T03:11:22;8.05;;;3.55;;
4569;SDS011;2297;51.442;6.996;2023-07-30T03:13:49;7.22;;;2.83;;
4569;SDS011;2297;51.442;6.996;2023-07-30T03:16:15;6.95;;;3.20;;
4569;SDS011;2297;51.442;6.996;2023-07-30T03:18:42;7.40;;;3.15;;
4569;SDS011;2297;51.442;6.996;2023-07-30T03:21:10;10.52;;;3.40;;
4569;SDS011;2297;51.442;6.996;2023-07-30T03:23:37;10.00;;;3.25;;
4569;SDS011;2297;51.442;6.996;2023-07-30T03:26:03;8.70;;;3.35;;
4569;SDS011;2297;51.442;6.996;2023-07-30T03:28:30;11.52;;;3.80;;
4569;SDS011;2297;51.442;6.996;2023-07-30T03:30:57;11.40;;;3.65;;
4569;SDS011;2297;51.442;6.996;2023-07-30T03:33:23;9.15;;;3.00;;
4569;SDS011;2297;51.442;6.996;2023-07-30T03:35:50;9.68;;;3.13;;
4569;SDS011;2297;51.442;6.996;2023-07-30T03:38:19;9.73;;;3.03;;
4569;SDS011;2297;51.442;6.996;2023-07-30T03:40:46;12.77;;;3.95;;
4569;SDS011;2297;51.442;6.996;2023-07-30T03:43:12;9.63;;;3.25;;
4569;SDS011;2297;51.442;6.996;2023-07-30T03:45:39;8.48;;;3.35;;
4569;SDS011;2297;51.442;6.996;2023-07-30T03:48:05;6.85;;;3.30;;
4569;SDS011;2297;51.442;6.996;2023-07-30T03:50:32;9.27;;;3.53;;
4569;SDS011;2297;51.442;6.996;2023-07-30T03:52:59;8.15;;;3.33;;
4569;SDS011;2297;51.442;6.996;2023-07-30T03:55:27;8.20;;;3.15;;
4569;SDS011;2297;51.442;6.996;2023-07-30T03:57:54;14.95;;;3.30;;
4569;SDS011;2297;51.442;6.996;2023-07-30T04:00:20;7.32;;;3.28;;
4569;SDS011;2297;51.442;6.996;2023-07-30T04:02:47;4.03;;;2.72;;
4569;SDS011;2297;51.442;6.996;2023-07-30T04:05:13;8.15;;;3.05;;
4569;SDS011;2297;51.442;6.996;2023-07-30T04:07:40;9.18;;;3.10;;
4569;SDS011;2297;51.442;6.996;2023-07-30T04:10:07;10.27;;;3.53;;
4569;SDS011;2297;51.442;6.996;2023-07-30T04:12:35;11.00;;;3.10;;
4569;SDS011;2297;51.442;6.996;2023-07-30T04:15:02;11.65;;;3.58;;
4569;SDS011;2297;51.442;6.996;2023-07-30T04:17:30;9.10;;;3.22;;
4569;SDS011;2297;51.442;6.996;2023-07-30T04:19:57;6.45;;;3.42;;
4569;SDS011;2297;51.442;6.996;2023-07-30T04:22:24;7.30;;;3.30;;
4569;SDS011;2297;51.442;6.996;2023-07-30T04:24:50;4.88;;;2.90;;
4569;SDS011;2297;51.442;6.996;2023-07-30T04:27:17;5.85;;;3.50;;
4569;SDS011;2297;51.442;6.996;2023-07-30T04:29:45;8.35;;;3.10;;
4569;SDS011;2297;51.442;6.996;2023-07-30T04:32:12;11.07;;;3.22;;
4569;SDS011;2297;51.442;6.996;2023-07-30T04:34:38;8.82;;;3.17;;
4569;SDS011;2297;51.442;6.996;2023-07-30T04:37:04;11.20;;;3.20;;
4569;SDS011;2297;51.442;6.996;2023-07-30T04:39:32;6.10;;;2.97;;
4569;SDS011;2297;51.442;6.996;2023-07-30T04:41:59;6.43;;;3.58;;
4569;SDS011;2297;51.442;6.996;2023-07-30T04:44:25;6.63;;;3.03;;
4569;SDS011;2297;51.442;6.996;2023-07-30T04:46:54;7.72;;;3.08;;
4569;SDS011;2297;51.442;6.996;2023-07-30T04:49:20;10.13;;;3.70;;
4569;SDS011;2297;51.442;6.996;2023-07-30T04:51:47;8.15;;;2.97;;
4569;SDS011;2297;51.442;6.996;2023-07-30T04:54:13;8.43;;;3.05;;
4569;SDS011;2297;51.442;6.996;2023-07-30T04:56:40;13.18;;;3.28;;
4569;SDS011;2297;51.442;6.996;2023-07-30T04:59:07;16.83;;;3.97;;
4569;SDS011;2297;51.442;6.996;2023-07-30T05:01:34;9.27;;;3.60;;
4569;SDS011;2297;51.442;6.996;2023-07-30T05:04:02;18.85;;;4.25;;
4569;SDS011;2297;51.442;6.996;2023-07-30T05:06:28;15.05;;;4.60;;
4569;SDS011;2297;51.442;6.996;2023-07-30T05:08:55;9.43;;;3.85;;
4569;SDS011;2297;51.442;6.996;2023-07-30T05:11:22;9.10;;;3.55;;
4569;SDS011;2297;51.442;6.996;2023-07-30T05:13:48;11.02;;;3.38;;
4569;SDS011;2297;51.442;6.996;2023-07-30T05:16:15;7.95;;;3.42;;
4569;SDS011;2297;51.442;6.996;2023-07-30T05:18:42;10.00;;;3.50;;
4569;SDS011;2297;51.442;6.996;2023-07-30T05:21:10;10.75;;;3.80;;
4569;SDS011;2297;51.442;6.996;2023-07-30T05:23:36;12.77;;;3.47;;
4569;SDS011;2297;51.442;6.996;2023-07-30T05:26:03;11.50;;;3.20;;
4569;SDS011;2297;51.442;6.996;2023-07-30T05:28:30;8.25;;;3.80;;
4569;SDS011;2297;51.442;6.996;2023-07-30T05:30:58;15.55;;;3.70;;
4569;SDS011;2297;51.442;6.996;2023-07-30T05:33:24;8.02;;;2.75;;
4569;SDS011;2297;51.442;6.996;2023-07-30T05:35:51;17.10;;;4.03;;
4569;SDS011;2297;51.442;6.996;2023-07-30T05:38:19;10.15;;;3.60;;
4569;SDS011;2297;51.442;6.996;2023-07-30T05:40:45;9.75;;;3.13;;
4569;SDS011;2297;51.442;6.996;2023-07-30T05:43:12;8.93;;;2.90;;
4569;SDS011;2297;51.442;6.996;2023-07-30T05:45:39;9.07;;;3.58;;
4569;SDS011;2297;51.442;6.996;2023-07-30T05:48:05;11.45;;;3.72;;
4569;SDS011;2297;51.442;6.996;2023-07-30T05:50:32;18.83;;;7.82;;
4569;SDS011;2297;51.442;6.996;2023-07-30T05:52:59;21.85;;;9.95;;
4569;SDS011;2297;51.442;6.996;2023-07-30T05:55:27;11.70;;;4.80;;
4569;SDS011;2297;51.442;6.996;2023-07-30T05:57:54;10.88;;;3.15;;
4569;SDS011;2297;51.442;6.996;2023-07-30T06:00:21;9.95;;;3.42;;
4569;SDS011;2297;51.442;6.996;2023-07-30T06:02:49;13.27;;;5.60;;
4569;SDS011;2297;51.442;6.996;2023-07-30T06:05:16;16.50;;;5.07;;
4569;SDS011;2297;51.442;6.996;2023-07-30T06:07:42;14.07;;;3.45;;
4569;SDS011;2297;51.442;6.996;2023-07-30T06:10:10;9.13;;;2.67;;
4569;SDS011;2297;51.442;6.996;2023-07-30T06:12:38;18.70;;;3.70;;
4569;SDS011;2297;51.442;6.996;2023-07-30T06:15:05;11.43;;;3.17;;
4569;SDS011;2297;51.442;6.996;2023-07-30T06:17:33;8.35;;;2.97;;
4569;SDS011;2297;51.442;6.996;2023-07-30T06:20:00;7.53;;;3.05;;
4569;SDS011;2297;51.442;6.996;2023-07-30T06:22:27;7.70;;;2.58;;
4569;SDS011;2297;51.442;6.996;2023-07-30T06:24:54;11.38;;;2.92;;
4569;SDS011;2297;51.442;6.996;2023-07-30T06:27:20;9.27;;;2.90;;
4569;SDS011;2297;51.442;6.996;2023-07-30T06:29:48;13.18;;;2.70;;
4569;SDS011;2297;51.442;6.996;2023-07-30T06:32:15;8.32;;;2.60;;
4569;SDS011;2297;51.442;6.996;2023-07-30T06:34:41;6.40;;;2.53;;
4569;SDS011;2297;51.442;6.996;2023-07-30T06:37:08;6.82;;;2.40;;
4569;SDS011;2297;51.442;6.996;2023-07-30T06:39:35;10.45;;;2.80;;
4569;SDS011;2297;51.442;6.996;2023-07-30T06:42:02;6.97;;;2.33;;
4569;SDS011;2297;51.442;6.996;2023-07-30T06:44:29;9.05;;;2.35;;
4569;SDS011;2297;51.442;6.996;2023-07-30T06:46:57;12.30;;;2.30;;
4569;SDS011;2297;51.442;6.996;2023-07-30T06:49:23;6.15;;;2.13;;
4569;SDS011;2297;51.442;6.996;2023-07-30T06:51:50;6.68;;;2.33;;
4569;SDS011;2297;51.442;6.996;2023-07-30T06:54:16;8.60;;;2.75;;
4569;SDS011;2297;51.442;6.996;2023-07-30T06:56:43;10.73;;;2.35;;
4569;SDS011;2297;51.442;6.996;2023-07-30T06:59:10;8.63;;;2.08;;
4569;SDS011;2297;51.442;6.996;2023-07-30T07:01:36;9.38;;;2.55;;
4569;SDS011;2297;51.442;6.996;2023-07-30T07:04:04;7.28;;;2.05;;
4569;SDS011;2297;51.442;6.996;2023-07-30T07:06:31;7.25;;;2.10;;
4569;SDS011;2297;51.442;6.996;2023-07-30T07:08:58;11.80;;;2.42;;
4569;SDS011;2297;51.442;6.996;2023-07-30T07:11:24;8.38;;;2.42;;
4569;SDS011;2297;51.442;6.996;2023-07-30T07:13:51;8.93;;;2.53;;
4569;SDS011;2297;51.442;6.996;2023-07-30T07:16:18;9.98;;;2.40;;
4569;SDS011;2297;51.442;6.996;2023-07-30T07:18:44;5.53;;;2.40;;
4569;SDS011;2297;51.442;6.996;2023-07-30T07:21:12;4.53;;;2.03;;
4569;SDS011;2297;51.442;6.996;2023-07-30T07:23:39;10.30;;;2.97;;
4569;SDS011;2297;51.442;6.996;2023-07-30T07:26:06;9.05;;;2.65;;
4569;SDS011;2297;51.442;6.996;2023-07-30T07:28:32;8.95;;;2.60;;
4569;SDS011;2297;51.442;6.996;2023-07-30T07:30:59;6.38;;;2.95;;
4569;SDS011;2297;51.442;6.996;2023-07-30T07:33:26;10.50;;;2.50;;
4569;SDS011;2297;51.442;6.996;2023-07-30T07:36:02;7.18;;;2.60;;
4569;SDS011;2297;51.442;6.996;2023-07-30T07:38:30;7.90;;;2.90;;
4569;SDS011;2297;51.442;6.996;2023-07-30T07:40:57;7.28;;;2.78;;
4569;SDS011;2297;51.442;6.996;2023-07-30T07:43:24;12.82;;;3.13;;
4569;SDS011;2297;51.442;6.996;2023-07-30T07:45:51;8.27;;;3.13;;
4569;SDS011;2297;51.442;6.996;2023-07-30T07:48:18;10.80;;;2.60;;
4569;SDS011;2297;51.442;6.996;2023-07-30T07:50:45;5.63;;;2.42;;
4569;SDS011;2297;51.442;6.996;2023-07-30T07:53:12;10.02;;;2.78;;
4569;SDS011;2297;51.442;6.996;2023-07-30T07:55:40;8.30;;;2.78;;
4569;SDS011;2297;51.442;6.996;2023-07-30T07:58:06;14.00;;;3.05;;
4569;SDS011;2297;51.442;6.996;2023-07-30T08:00:33;15.00;;;3.58;;
4569;SDS011;2297;51.442;6.996;2023-07-30T08:03:00;8.77;;;2.80;;
4569;SDS011;2297;51.442;6.996;2023-07-30T08:05:26;5.53;;;2.72;;
4569;SDS011;2297;51.442;6.996;2023-07-30T08:07:53;7.75;;;2.92;;
4569;SDS011;2297;51.442;6.996;2023-07-30T08:10:20;8.60;;;3.03;;
4569;SDS011;2297;51.442;6.996;2023-07-30T08:12:48;11.80;;;3.53;;
4569;SDS011;2297;51.442;6.996;2023-07-30T08:15:14;8.80;;;2.95;;
4569;SDS011;2297;51.442;6.996;2023-07-30T08:17:41;11.57;;;3.25;;
4569;SDS011;2297;51.442;6.996;2023-07-30T08:20:08;16.15;;;3.83;;
4569;SDS011;2297;51.442;6.996;2023-07-30T08:22:35;18.05;;;4.00;;
4569;SDS011;2297;51.442;6.996;2023-07-30T08:25:01;12.73;;;3.42;;
4569;SDS011;2297;51.442;6.996;2023-07-30T08:27:28;14.73;;;3.35;;
4569;SDS011;2297;51.442;6.996;2023-07-30T08:29:56;9.63;;;3.20;;
4569;SDS011;2297;51.442;6.996;2023-07-30T08:32:23;16.80;;;4.22;;
4569;SDS011;2297;51.442;6.996;2023-07-30T08:34:50;12.35;;;3.47;;
4569;SDS011;2297;51.442;6.996;2023-07-30T08:37:16;12.00;;;3.20;;
4569;SDS011;2297;51.442;6.996;2023-07-30T08:39:43;11.05;;;3.10;;
4569;SDS011;2297;51.442;6.996;2023-07-30T08:42:10;10.02;;;3.50;;
4569;SDS011;2297;51.442;6.996;2023-07-30T08:44:36;8.25;;;3.30;;
4569;SDS011;2297;51.442;6.996;2023-07-30T08:47:05;7.47;;;2.83;;
4569;SDS011;2297;51.442;6.996;2023-07-30T08:49:31;12.23;;;3.20;;
4569;SDS011;2297;51.442;6.996;2023-07-30T08:51:58;11.70;;;3.15;;
4569;SDS011;2297;51.442;6.996;2023-07-30T08:54:27;10.57;;;3.55;;
4569;SDS011;2297;51.442;6.996;2023-07-30T08:56:57;8.68;;;3.60;;
4569;SDS011;2297;51.442;6.996;2023-07-30T08:59:24;15.98;;;3.50;;
4569;SDS011;2297;51.442;6.996;2023-07-30T09:01:51;15.38;;;3.42;;
4569;SDS011;2297;51.442;6.996;2023-07-30T09:04:21;9.23;;;3.15;;
4569;SDS011;2297;51.442;6.996;2023-07-30T09:06:48;7.45;;;2.95;;
4569;SDS011;2297;51.442;6.996;2023-07-30T09:09:15;11.73;;;3.55;;
4569;SDS011;2297;51.442;6.996;2023-07-30T09:11:42;9.73;;;3.35;;
4569;SDS011;2297;51.442;6.996;2023-07-30T09:14:09;15.25;;;4.30;;
4569;SDS011;2297;51.442;6.996;2023-07-30T09:16:36;10.70;;;3.58;;
4569;SDS011;2297;51.442;6.996;2023-07-30T09:19:02;8.75;;;3.17;;
4569;SDS011;2297;51.442;6.996;2023-07-30T09:21:30;8.02;;;2.83;;
4569;SDS011;2297;51.442;6.996;2023-07-30T09:23:58;9.02;;;3.50;;
4569;SDS011;2297;51.442;6.996;2023-07-30T09:26:36;14.77;;;4.10;;
4569;SDS011;2297;51.442;6.996;2023-07-30T09:29:07;10.75;;;3.88;;
4569;SDS011;2297;51.442;6.996;2023-07-30T09:31:42;13.95;;;3.90;;
4569;SDS011;2297;51.442;6.996;2023-07-30T09:34:14;11.38;;;3.50;;
4569;SDS011;2297;51.442;6.996;2023-07-30T09:36:44;9.43;;;3.08;;
4569;SDS011;2297;51.442;6.996;2023-07-30T09:39:15;11.65;;;3.17;;
4569;SDS011;2297;51.442;6.996;2023-07-30T09:41:42;7.57;;;2.85;;
4569;SDS011;2297;51.442;6.996;2023-07-30T09:44:09;8.82;;;2.72;;
4569;SDS011;2297;51.442;6.996;2023-07-30T09:46:41;10.82;;;3.38;;
4569;SDS011;2297;51.442;6.996;2023-07-30T09:49:09;10.23;;;3.33;;
4569;SDS011;2297;51.442;6.996;2023-07-30T09:51:36;10.02;;;3.00;;
4569;SDS011;2297;51.442;6.996;2023-07-30T09:54:04;9.93;;;2.78;;
4569;SDS011;2297;51.442;6.996;2023-07-30T09:56:32;14.10;;;3.42;;
4569;SDS011;2297;51.442;6.996;2023-07-30T09:58:59;9.57;;;2.97;;
4569;SDS011;2297;51.442;6.996;2023-07-30T10:01:26;13.25;;;2.47;;
4569;SDS011;2297;51.442;6.996;2023-07-30T10:03:56;8.57;;;2.15;;
4569;SDS011;2297;51.442;6.996;2023-07-30T10:06:23;8.68;;;2.67;;
4569;SDS011;2297;51.442;6.996;2023-07-30T10:08:53;8.38;;;2.35;;
4569;SDS011;2297;51.442;6.996;2023-07-30T10:11:26;8.75;;;2.00;;
4569;SDS011;2297;51.442;6.996;2023-07-30T10:13:54;10.40;;;2.20;;
4569;SDS011;2297;51.442;6.996;2023-07-30T10:16:24;8.50;;;2.50;;
4569;SDS011;2297;51.442;6.996;2023-07-30T10:18:55;4.07;;;1.90;;
4569;SDS011;2297;51.442;6.996;2023-07-30T10:21:23;9.90;;;2.70;;
4569;SDS011;2297;51.442;6.996;2023-07-30T10:23:57;7.90;;;2.92;;
4569;SDS011;2297;51.442;6.996;2023-07-30T10:26:30;10.85;;;2.72;;
4569;SDS011;2297;51.442;6.996;2023-07-30T10:29:15;8.77;;;2.47;;
4569;SDS011;2297;51.442;6.996;2023-07-30T10:31:43;5.13;;;1.83;;
4569;SDS011;2297;51.442;6.996;2023-07-30T10:34:16;9.03;;;2.23;;
4569;SDS011;2297;51.442;6.996;2023-07-30T10:36:44;9.43;;;2.42;;
4569;SDS011;2297;51.442;6.996;2023-07-30T10:39:14;10.93;;;2.55;;
4569;SDS011;2297;51.442;6.996;2023-07-30T10:41:45;5.45;;;1.83;;
4569;SDS011;2297;51.442;6.996;2023-07-30T10:44:18;5.22;;;2.05;;
4569;SDS011;2297;51.442;6.996;2023-07-30T10:46:48;6.03;;;2.50;;
4569;SDS011;2297;51.442;6.996;2023-07-30T10:49:14;7.82;;;2.70;;
4569;SDS011;2297;51.442;6.996;2023-07-30T10:51:41;6.63;;;2.50;;
4569;SDS011;2297;51.442;6.996;2023-07-30T10:54:08;7.28;;;2.70;;
4569;SDS011;2297;51.442;6.996;2023-07-30T10:56:34;9.07;;;2.58;;
4569;SDS011;2297;51.442;6.996;2023-07-30T10:59:04;9.93;;;1.95;;
4569;SDS011;2297;51.442;6.996;2023-07-30T11:01:35;11.77;;;2.85;;
4569;SDS011;2297;51.442;6.996;2023-07-30T11:04:05;10.98;;;2.58;;
4569;SDS011;2297;51.442;6.996;2023-07-30T11:06:32;7.85;;;2.25;;
4569;SDS011;2297;51.442;6.996;2023-07-30T11:08:59;21.27;;;9.15;;
4569;SDS011;2297;51.442;6.996;2023-07-30T11:11:26;13.60;;;4.82;;
4569;SDS011;2297;51.442;6.996;2023-07-30T11:13:53;6.55;;;2.17;;
4569;SDS011;2297;51.442;6.996;2023-07-30T11:16:21;6.20;;;2.20;;
4569;SDS011;2297;51.442;6.996;2023-07-30T11:18:51;6.30;;;1.88;;
4569;SDS011;2297;51.442;6.996;2023-07-30T11:21:19;6.97;;;2.30;;
4569;SDS011;2297;51.442;6.996;2023-07-30T11:23:46;9.05;;;1.95;;
4569;SDS011;2297;51.442;6.996;2023-07-30T11:26:13;6.63;;;2.05;;
4569;SDS011;2297;51.442;6.996;2023-07-30T11:28:42;7.60;;;1.85;;
4569;SDS011;2297;51.442;6.996;2023-07-30T11:31:09;6.38;;;1.90;;
4569;SDS011;2297;51.442;6.996;2023-07-30T11:33:42;8.73;;;2.72;;
4569;SDS011;2297;51.442;6.996;2023-07-30T11:36:12;10.57;;;2.67;;
4569;SDS011;2297;51.442;6.996;2023-07-30T11:38:41;10.00;;;1.95;;
4569;SDS011;2297;51.442;6.996;2023-07-30T11:41:09;4.72;;;1.73;;
4569;SDS011;2297;51.442;6.996;2023-07-30T11:43:37;7.60;;;1.83;;
4569;SDS011;2297;51.442;6.996;2023-07-30T11:46:06;4.85;;;1.92;;
4569;SDS011;2297;51.442;6.996;2023-07-30T11:48:34;7.38;;;2.50;;
4569;SDS011;2297;51.442;6.996;2023-07-30T11:51:02;8.43;;;2.10;;
4569;SDS011;2297;51.442;6.996;2023-07-30T11:53:44;5.88;;;2.13;;
4569;SDS011;2297;51.442;6.996;2023-07-30T11:56:15;7.20;;;2.58;;
4569;SDS011;2297;51.442;6.996;2023-07-30T11:58:46;4.28;;;1.70;;
4569;SDS011;2297;51.442;6.996;2023-07-30T12:01:14;8.27;;;2.10;;
4569;SDS011;2297;51.442;6.996;2023-07-30T12:03:41;9.38;;;1.92;;
4569;SDS011;2297;51.442;6.996;2023-07-30T12:06:10;4.82;;;1.48;;
4569;SDS011;2297;51.442;6.996;2023-07-30T12:08:37;5.63;;;1.90;;
4569;SDS011;2297;51.442;6.996;2023-07-30T12:11:04;7.35;;;2.55;;
4569;SDS011;2297;51.442;6.996;2023-07-30T12:13:32;5.07;;;1.60;;
4569;SDS011;2297;51.442;6.996;2023-07-30T12:15:59;5.13;;;1.90;;
4569;SDS011;2297;51.442;6.996;2023-07-30T12:18:26;5.95;;;1.90;;
4569;SDS011;2297;51.442;6.996;2023-07-30T12:20:54;4.90;;;1.83;;
4569;SDS011;2297;51.442;6.996;2023-07-30T12:23:22;8.88;;;1.83;;
4569;SDS011;2297;51.442;6.996;2023-07-30T12:25:50;6.70;;;1.80;;
4569;SDS011;2297;51.442;6.996;2023-07-30T12:28:17;8.85;;;1.90;;
4569;SDS011;2297;51.442;6.996;2023-07-30T12:30:43;6.57;;;1.92;;
4569;SDS011;2297;51.442;6.996;2023-07-30T12:33:10;3.60;;;1.55;;
4569;SDS011;2297;51.442;6.996;2023-07-30T12:35:37;5.90;;;1.60;;
4569;SDS011;2297;51.442;6.996;2023-07-30T12:38:03;4.55;;;1.63;;
4569;SDS011;2297;51.442;6.996;2023-07-30T12:40:31;6.00;;;1.67;;
4569;SDS011;2297;51.442;6.996;2023-07-30T12:43:00;5.20;;;1.58;;
4569;SDS011;2297;51.442;6.996;2023-07-30T12:45:28;3.97;;;1.65;;
4569;SDS011;2297;51.442;6.996;2023-07-30T12:47:54;3.13;;;1.60;;
4569;SDS011;2297;51.442;6.996;2023-07-30T12:50:21;5.68;;;1.98;;
4569;SDS011;2297;51.442;6.996;2023-07-30T12:52:48;4.88;;;1.15;;
4569;SDS011;2297;51.442;6.996;2023-07-30T12:55:15;3.38;;;1.27;;
4569;SDS011;2297;51.442;6.996;2023-07-30T12:57:43;3.08;;;1.33;;
4569;SDS011;2297;51.442;6.996;2023-07-30T13:00:10;2.88;;;1.30;;
4569;SDS011;2297;51.442;6.996;2023-07-30T13:02:38;3.17;;;1.40;;
4569;SDS011;2297;51.442;6.996;2023-07-30T13:05:04;9.38;;;1.98;;
4569;SDS011;2297;51.442;6.996;2023-07-30T13:07:31;8.23;;;1.40;;
4569;SDS011;2297;51.442;6.996;2023-07-30T13:10:02;5.63;;;1.58;;
4569;SDS011;2297;51.442;6.996;2023-07-30T13:12:30;2.20;;;1.35;;
4569;SDS011;2297;51.442;6.996;2023-07-30T13:14:58;5.70;;;1.75;;
4569;SDS011;2297;51.442;6.996;2023-07-30T13:17:24;4.72;;;2.35;;
4569;SDS011;2297;51.442;6.996;2023-07-30T13:19:51;4.93;;;1.50;;
4569;SDS011;2297;51.442;6.996;2023-07-30T13:22:18;3.22;;;1.35;;
4569;SDS011;2297;51.442;6.996;2023-07-30T13:24:44;5.97;;;1.60;;
4569;SDS011;2297;51.442;6.996;2023-07-30T13:27:11;8.15;;;1.73;;
4569;SDS011;2297;51.442;6.996;2023-07-30T13:29:38;6.03;;;2.17;;
4569;SDS011;2297;51.442;6.996;2023-07-30T13:32:06;3.67;;;1.55;;
4569;SDS011;2297;51.442;6.996;2023-07-30T13:34:33;4.50;;;1.52;;
4569;SDS011;2297;51.442;6.996;2023-07-30T13:36:59;5.72;;;1.50;;
4569;SDS011;2297;51.442;6.996;2023-07-30T13:39:26;6.43;;;1.52;;
4569;SDS011;2297;51.442;6.996;2023-07-30T13:41:53;4.78;;;1.92;;
4569;SDS011;2297;51.442;6.996;2023-07-30T13:44:20;5.18;;;1.42;;
4569;SDS011;2297;51.442;6.996;2023-07-30T13:46:46;3.42;;;1.58;;
4569;SDS011;2297;51.442;6.996;2023-07-30T13:49:14;3.75;;;1.50;;
4569;SDS011;2297;51.442;6.996;2023-07-30T13:51:41;7.40;;;1.88;;
4569;SDS011;2297;51.442;6.996;2023-07-30T13:54:07;4.72;;;1.80;;
4569;SDS011;2297;51.442;6.996;2023-07-30T13:56:34;3.33;;;1.48;;
4569;SDS011;2297;51.442;6.996;2023-07-30T13:59:03;8.40;;;2.10;;
4569;SDS011;2297;51.442;6.996;2023-07-30T14:01:30;7.03;;;1.80;;
4569;SDS011;2297;51.442;6.996;2023-07-30T14:03:57;6.13;;;1.63;;
4569;SDS011;2297;51.442;6.996;2023-07-30T14:06:25;5.72;;;1.67;;
4569;SDS011;2297;51.442;6.996;2023-07-30T14:08:51;7.60;;;1.70;;
4569;SDS011;2297;51.442;6.996;2023-07-30T14:11:18;7.50;;;1.65;;
4569;SDS011;2297;51.442;6.996;2023-07-30T14:13:45;3.67;;;1.42;;
4569;SDS011;2297;51.442;6.996;2023-07-30T14:16:12;9.05;;;1.92;;
4569;SDS011;2297;51.442;6.996;2023-07-30T14:18:39;4.07;;;1.58;;
4569;SDS011;2297;51.442;6.996;2023-07-30T14:21:06;4.78;;;1.60;;
4569;SDS011;2297;51.442;6.996;2023-07-30T14:23:34;3.80;;;1.50;;
4569;SDS011;2297;51.442;6.996;2023-07-30T14:26:03;6.30;;;2.08;;
4569;SDS011;2297;51.442;6.996;2023-07-30T14:28:30;4.70;;;1.77;;
4569;SDS011;2297;51.442;6.996;2023-07-30T14:30:56;5.88;;;1.90;;
4569;SDS011;2297;51.442;6.996;2023-07-30T14:33:23;5.18;;;1.80;;
4569;SDS011;2297;51.442;6.996;2023-07-30T14:35:50;5.65;;;2.08;;
4569;SDS011;2297;51.442;6.996;2023-07-30T14:38:16;4.68;;;1.65;;
4569;SDS011;2297;51.442;6.996;2023-07-30T14:40:44;6.30;;;2.28;;
4569;SDS011;2297;51.442;6.996;2023-07-30T14:43:11;5.97;;;2.25;;
4569;SDS011;2297;51.442;6.996;2023-07-30T14:45:38;6.85;;;1.98;;
4569;SDS011;2297;51.442;6.996;2023-07-30T14:48:04;3.95;;;1.75;;
4569;SDS011;2297;51.442;6.996;2023-07-30T14:50:31;5.30;;;1.88;;
4569;SDS011;2297;51.442;6.996;2023-07-30T14:52:58;5.32;;;2.22;;
4569;SDS011;2297;51.442;6.996;2023-07-30T14:55:24;5.60;;;2.20;;
4569;SDS011;2297;51.442;6.996;2023-07-30T14:57:52;8.82;;;1.90;;
4569;SDS011;2297;51.442;6.996;2023-07-30T15:00:19;4.05;;;1.85;;
4569;SDS011;2297;51.442;6.996;2023-07-30T15:02:46;8.30;;;2.65;;
4569;SDS011;2297;51.442;6.996;2023-07-30T15:05:12;5.82;;;2.10;;
4569;SDS011;2297;51.442;6.996;2023-07-30T15:07:39;5.47;;;1.70;;
4569;SDS011;2297;51.442;6.996;2023-07-30T15:10:06;5.28;;;1.92;;
4569;SDS011;2297;51.442;6.996;2023-07-30T15:12:34;4.82;;;1.58;;
4569;SDS011;2297;51.442;6.996;2023-07-30T15:15:02;3.45;;;1.70;;
4569;SDS011;2297;51.442;6.996;2023-07-30T15:17:30;7.80;;;1.80;;